Terminal Aerodrome Forecast
Issued by NWS Billings, MT

Home | Current Version | Previous Version | Text Only | Print | Product List | Glossary On
Versions: 1 2 3 4 5 6 7 8 9 10 11 12 13 14 15 16 17 18 19 20 21 22 23 24
000
FTUS45 KBYZ 130528
TAFMLS
TAF
KMLS 130528Z 1306/1406 15008KT P6SM FEW200
     FM130900 30009KT P6SM FEW200
     FM131600 31014G20KT P6SM SCT060
     FM140000 02005KT P6SM SCT060=

USA.gov is the U.S. government's official web portal to all federal, state and local government web resources and services.